createdAt,value
2023-03-18T00:00:24.379Z,34.30
2023-03-18T00:02:57.723Z,34.30
2023-03-18T00:05:37.561Z,34.30
2023-03-18T00:08:13.367Z,34.40
2023-03-18T00:10:46.341Z,34.40
2023-03-18T00:13:21.564Z,34.40
2023-03-18T00:15:58.017Z,34.30
2023-03-18T00:18:32.130Z,34.30
2023-03-18T00:21:11.989Z,34.30
2023-03-18T00:23:45.401Z,34.40
2023-03-18T00:26:22.434Z,34.40
2023-03-18T00:29:01.067Z,34.40
2023-03-18T00:31:33.079Z,34.40
2023-03-18T00:34:10.899Z,34.30
2023-03-18T00:36:58.188Z,34.30
2023-03-18T00:39:34.614Z,34.30
2023-03-18T00:42:14.093Z,34.30
2023-03-18T00:44:54.325Z,34.30
2023-03-18T00:47:32.654Z,34.40
2023-03-18T00:50:07.471Z,34.30
2023-03-18T00:52:42.327Z,34.30
2023-03-18T00:55:17.716Z,34.30
2023-03-18T00:57:54.147Z,34.30
2023-03-18T01:00:27.603Z,34.30
2023-03-18T01:03:00.580Z,34.30
2023-03-18T01:05:33.466Z,34.30
2023-03-18T01:08:11.887Z,34.20
2023-03-18T01:10:46.913Z,34.80
2023-03-18T01:13:23.922Z,34.20
2023-03-18T01:16:03.327Z,34.30
2023-03-18T01:18:43.676Z,34.30
2023-03-18T01:21:24.292Z,34.20
2023-03-18T01:24:03.530Z,34.30
2023-03-18T01:26:43.180Z,34.10
2023-03-18T01:29:21.601Z,34.20
2023-03-18T01:31:59.273Z,34.20
2023-03-18T01:34:39.018Z,34.10
2023-03-18T01:37:17.085Z,34.20
2023-03-18T01:39:55.180Z,34.10
2023-03-18T01:42:31.663Z,34.20
2023-03-18T01:45:27.158Z,34.30
2023-03-18T01:48:10.627Z,34.20
2023-03-18T01:50:45.212Z,34.20
2023-03-18T01:53:23.436Z,34.20
2023-03-18T01:56:10.052Z,34.10
2023-03-18T01:58:49.276Z,34.20
2023-03-18T02:01:28.191Z,34.20
2023-03-18T02:04:03.970Z,34.30
2023-03-18T02:06:40.110Z,34.30
2023-03-18T02:09:16.658Z,34.30
2023-03-18T02:11:59.339Z,34.20
2023-03-18T02:14:35.745Z,34.20
2023-03-18T02:17:20.317Z,34.20
2023-03-18T02:20:12.964Z,34.30
2023-03-18T02:22:49.757Z,34.30
2023-03-18T02:25:38.960Z,34.30
2023-03-18T02:28:19.685Z,34.10
2023-03-18T02:30:56.302Z,34.30
2023-03-18T02:33:39.776Z,34.30
2023-03-18T02:36:27.368Z,34.20
2023-03-18T02:39:06.154Z,34.20
2023-03-18T02:41:42.387Z,34.10
2023-03-18T02:44:21.196Z,34.20
2023-03-18T02:47:02.096Z,34.10
2023-03-18T02:49:38.042Z,34.20
2023-03-18T02:52:11.616Z,34.40
2023-03-18T02:54:53.838Z,34.20
2023-03-18T02:57:29.506Z,34.30
2023-03-18T03:00:05.079Z,34.20
2023-03-18T03:02:42.246Z,34.20
2023-03-18T03:05:17.155Z,34.20
2023-03-18T03:07:53.619Z,34.20
2023-03-18T03:10:28.278Z,34.10
2023-03-18T03:13:10.649Z,34.20
2023-03-18T03:15:51.924Z,34.10
2023-03-18T03:18:32.500Z,34.30
2023-03-18T03:21:09.074Z,34.30
2023-03-18T03:23:45.515Z,34.20
2023-03-18T03:26:21.800Z,34.20
2023-03-18T03:28:58.389Z,34.30
2023-03-18T03:31:40.156Z,34.20
2023-03-18T03:34:14.063Z,34.20
2023-03-18T03:36:51.560Z,34.20
2023-03-18T03:39:28.244Z,34.30
2023-03-18T03:42:06.118Z,34.20
2023-03-18T03:44:46.913Z,34.20
2023-03-18T03:47:27.051Z,34.20
2023-03-18T03:50:02.198Z,34.10
2023-03-18T03:52:38.145Z,34.20
2023-03-18T03:55:14.319Z,34.20
2023-03-18T03:57:52.311Z,34.20
2023-03-18T04:00:29.254Z,34.20
2023-03-18T04:03:10.408Z,34.20
2023-03-18T04:05:48.182Z,34.20
2023-03-18T04:08:28.316Z,34.30
2023-03-18T04:11:07.341Z,34.20
2023-03-18T04:13:41.964Z,34.30
2023-03-18T04:16:18.630Z,34.30
2023-03-18T04:18:59.508Z,34.30
2023-03-18T04:21:32.092Z,34.20
2023-03-18T04:24:10.197Z,34.30
2023-03-18T04:26:45.943Z,34.20
2023-03-18T04:29:22.600Z,34.20
2023-03-18T04:32:01.849Z,34.30
2023-03-18T04:34:44.253Z,34.20
2023-03-18T04:37:23.034Z,34.20
2023-03-18T04:40:03.438Z,34.20
2023-03-18T04:42:45.233Z,34.20
2023-03-18T04:45:26.510Z,34.20
2023-03-18T04:48:03.757Z,34.20
2023-03-18T04:50:43.664Z,34.20
2023-03-18T04:53:21.244Z,34.80
2023-03-18T04:55:56.992Z,34.30
2023-03-18T04:58:35.295Z,34.20
2023-03-18T05:01:10.563Z,34.20
2023-03-18T05:03:46.843Z,34.20
2023-03-18T05:06:30.737Z,34.20
2023-03-18T05:09:10.590Z,34.20
2023-03-18T05:11:43.377Z,34.20
2023-03-18T05:14:24.546Z,34.20
2023-03-18T05:16:58.863Z,34.20
2023-03-18T05:19:34.597Z,34.20
2023-03-18T05:22:14.924Z,34.20
2023-03-18T05:24:50.172Z,34.20
2023-03-18T05:27:24.587Z,34.20
2023-03-18T05:29:57.840Z,34.20
2023-03-18T05:32:35.646Z,34.20
2023-03-18T05:35:14.142Z,34.10
2023-03-18T05:37:58.080Z,34.20
2023-03-18T05:40:38.675Z,34.20
2023-03-18T05:43:22.287Z,34.20
2023-03-18T05:46:08.014Z,34.20
2023-03-18T05:48:42.478Z,34.20
2023-03-18T05:51:16.591Z,34.20
2023-03-18T05:53:54.087Z,34.10
2023-03-18T05:56:36.076Z,34.20
2023-03-18T05:59:15.226Z,34.10
2023-03-18T06:01:49.838Z,34.20
2023-03-18T06:04:27.473Z,34.10
2023-03-18T06:07:01.748Z,34.20
2023-03-18T06:09:45.044Z,34.20
2023-03-18T06:12:25.846Z,34.10
2023-03-18T06:15:03.341Z,34.20
2023-03-18T06:17:36.652Z,34.10
2023-03-18T06:20:11.325Z,34.20
2023-03-18T06:22:52.843Z,34.20
2023-03-18T06:25:32.820Z,34.20
2023-03-18T06:28:12.436Z,34.20
2023-03-18T06:30:54.168Z,34.10
2023-03-18T06:33:30.182Z,34.20
2023-03-18T06:36:09.470Z,34.20
2023-03-18T06:38:47.115Z,34.10
2023-03-18T06:41:27.980Z,34.00
2023-03-18T06:44:02.920Z,34.00
2023-03-18T06:46:43.293Z,34.00
2023-03-18T06:49:19.346Z,34.00
2023-03-18T06:51:57.368Z,34.00
2023-03-18T06:54:37.795Z,34.00
2023-03-18T06:57:20.682Z,34.00
2023-03-18T06:59:58.524Z,34.00
2023-03-18T07:02:33.372Z,34.00
2023-03-18T07:05:05.411Z,34.00
2023-03-18T07:07:41.244Z,33.90
2023-03-18T07:10:19.882Z,34.00
2023-03-18T07:12:55.728Z,34.10
2023-03-18T07:15:35.180Z,34.00
2023-03-18T07:18:11.934Z,34.00
2023-03-18T07:20:49.156Z,34.10
2023-03-18T07:23:27.256Z,34.00
2023-03-18T07:26:05.598Z,34.00
2023-03-18T07:28:45.387Z,34.00
2023-03-18T07:31:20.798Z,34.00
2023-03-18T07:33:59.619Z,34.00
2023-03-18T07:36:38.886Z,34.00
2023-03-18T07:39:19.039Z,34.00
2023-03-18T07:41:57.400Z,34.00
2023-03-18T07:44:43.635Z,34.00
2023-03-18T07:47:19.507Z,33.90
2023-03-18T07:49:57.669Z,33.90
2023-03-18T07:52:38.388Z,33.90
2023-03-18T07:55:17.353Z,33.90
2023-03-18T07:57:50.905Z,33.90
2023-03-18T08:00:34.234Z,33.90
2023-03-18T08:03:09.254Z,33.80
2023-03-18T08:05:42.018Z,33.80
2023-03-18T08:08:18.384Z,33.90
2023-03-18T08:10:53.961Z,33.80
2023-03-18T08:13:26.511Z,33.80
2023-03-18T08:16:05.908Z,33.70
2023-03-18T08:18:39.760Z,33.60
2023-03-18T08:21:11.718Z,33.70
2023-03-18T08:23:44.210Z,33.60
2023-03-18T08:26:15.563Z,33.60
2023-03-18T08:28:47.079Z,33.60
2023-03-18T08:31:23.989Z,33.60
2023-03-18T08:33:59.852Z,33.40
2023-03-18T08:36:32.803Z,33.40
2023-03-18T08:39:04.707Z,33.40
2023-03-18T08:41:43.282Z,33.30
2023-03-18T08:44:18.318Z,33.40
2023-03-18T08:46:57.388Z,33.40
2023-03-18T08:49:28.619Z,33.40
2023-03-18T08:52:02.819Z,33.40
2023-03-18T08:54:38.028Z,33.30
2023-03-18T08:57:10.694Z,33.30
2023-03-18T08:59:42.950Z,33.40
2023-03-18T09:02:21.527Z,33.40
2023-03-18T09:04:59.335Z,33.30
2023-03-18T09:07:36.432Z,33.30
2023-03-18T09:10:11.724Z,33.30
2023-03-18T09:12:44.538Z,33.30
2023-03-18T09:15:23.011Z,33.20
2023-03-18T09:18:11.696Z,33.20
2023-03-18T09:20:47.050Z,33.20
2023-03-18T09:23:22.345Z,33.20
2023-03-18T09:25:57.504Z,33.10
2023-03-18T09:28:30.338Z,33.20
2023-03-18T09:31:06.338Z,33.10
2023-03-18T09:33:46.358Z,33.10
2023-03-18T09:36:21.851Z,33.10
2023-03-18T09:38:54.742Z,33.10
2023-03-18T09:41:38.875Z,33.10
2023-03-18T09:44:23.202Z,33.00
2023-03-18T09:47:20.615Z,33.00
2023-03-18T09:50:22.501Z,32.90
2023-03-18T09:53:04.557Z,33.00
2023-03-18T09:55:49.199Z,32.90
2023-03-18T09:58:32.589Z,32.90
2023-03-18T10:01:10.505Z,32.90
2023-03-18T10:03:48.080Z,33.00
2023-03-18T10:06:27.376Z,32.90
2023-03-18T10:09:12.753Z,32.90
2023-03-18T10:11:53.686Z,32.90
2023-03-18T10:14:42.126Z,32.90
2023-03-18T10:17:23.151Z,32.80
2023-03-18T10:19:59.390Z,32.90
2023-03-18T10:23:05.292Z,32.70
2023-03-18T10:25:41.675Z,33.30
2023-03-18T10:28:41.174Z,32.70
2023-03-18T10:31:32.355Z,32.70
2023-03-18T10:34:08.174Z,32.60
2023-03-18T10:36:48.259Z,32.70
2023-03-18T10:39:27.917Z,32.70
2023-03-18T10:42:03.355Z,32.60
2023-03-18T10:44:42.849Z,32.70
2023-03-18T10:47:21.131Z,32.60
2023-03-18T10:50:01.657Z,32.60
2023-03-18T10:52:44.303Z,32.60
2023-03-18T10:55:32.799Z,32.60
2023-03-18T10:58:23.177Z,32.60
2023-03-18T11:01:01.895Z,32.60
2023-03-18T11:03:41.402Z,32.60
2023-03-18T11:06:31.524Z,32.60
2023-03-18T11:09:17.309Z,32.60
2023-03-18T11:12:08.301Z,32.70
2023-03-18T11:14:45.698Z,32.60
2023-03-18T11:17:27.747Z,32.70
2023-03-18T11:20:10.255Z,32.70
2023-03-18T11:22:53.175Z,32.60
2023-03-18T11:25:34.716Z,32.60
2023-03-18T11:28:12.425Z,32.70
2023-03-18T11:30:54.805Z,32.50
2023-03-18T11:33:30.858Z,32.50
2023-03-18T11:36:07.589Z,32.60
2023-03-18T11:38:41.939Z,32.50
2023-03-18T11:41:19.717Z,32.50
2023-03-18T11:44:03.656Z,32.50
2023-03-18T11:46:42.480Z,32.40
2023-03-18T11:49:17.313Z,32.60
2023-03-18T11:52:00.986Z,32.50
2023-03-18T11:55:16.343Z,32.50
2023-03-18T11:58:20.447Z,32.40
2023-03-18T12:01:13.705Z,32.40
2023-03-18T12:04:15.881Z,33.00
2023-03-18T12:07:07.814Z,32.40
2023-03-18T12:09:49.978Z,32.50
2023-03-18T12:12:44.633Z,32.50
2023-03-18T12:15:32.765Z,32.40
2023-03-18T12:18:28.766Z,32.40
2023-03-18T12:21:11.918Z,32.40
2023-03-18T12:24:11.931Z,32.40
2023-03-18T12:27:02.614Z,32.40
2023-03-18T12:30:02.939Z,32.40
2023-03-18T12:32:47.239Z,32.40
2023-03-18T12:35:42.113Z,32.40
2023-03-18T12:39:06.891Z,32.30
2023-03-18T12:41:55.033Z,32.30
2023-03-18T12:44:42.457Z,32.40
2023-03-18T12:47:22.816Z,32.40
2023-03-18T12:50:00.294Z,32.40
2023-03-18T12:52:47.446Z,32.40
2023-03-18T12:55:29.856Z,32.30
2023-03-18T12:58:09.195Z,32.40
2023-03-18T13:00:50.441Z,32.30
2023-03-18T13:03:37.679Z,32.30
2023-03-18T13:06:19.547Z,32.30
2023-03-18T13:09:21.114Z,32.30
2023-03-18T13:12:18.264Z,32.20
2023-03-18T13:15:13.018Z,32.20
2023-03-18T13:17:50.886Z,32.20
2023-03-18T13:20:32.523Z,32.20
2023-03-18T13:23:20.717Z,32.20
2023-03-18T13:26:17.254Z,32.30
2023-03-18T13:29:08.030Z,32.30
2023-03-18T13:31:58.033Z,32.20
2023-03-18T13:35:06.824Z,32.30
2023-03-18T13:38:17.921Z,32.20
2023-03-18T13:41:34.427Z,32.20
2023-03-18T13:44:23.397Z,32.20
2023-03-18T13:47:07.449Z,32.20
2023-03-18T13:49:49.070Z,32.20
2023-03-18T13:52:36.661Z,32.20
2023-03-18T13:55:27.264Z,32.30
2023-03-18T13:58:27.480Z,32.30
2023-03-18T14:01:34.531Z,32.30
2023-03-18T14:04:37.668Z,32.20
2023-03-18T14:07:22.105Z,32.30
2023-03-18T14:10:17.164Z,32.30
2023-03-18T14:12:54.904Z,32.30
2023-03-18T14:16:02.338Z,32.30
2023-03-18T14:18:42.384Z,32.20
2023-03-18T14:21:30.617Z,32.40
2023-03-18T14:24:19.498Z,32.30
2023-03-18T14:27:20.320Z,32.30
2023-03-18T14:30:00.359Z,32.30
2023-03-18T14:32:49.917Z,32.40
2023-03-18T14:35:35.900Z,32.40
2023-03-18T14:38:19.551Z,32.40
2023-03-18T14:40:57.448Z,32.30
2023-03-18T14:43:36.170Z,32.30
2023-03-18T14:46:14.459Z,32.30
2023-03-18T14:49:00.686Z,32.40
2023-03-18T14:51:46.254Z,32.30
2023-03-18T14:54:33.054Z,32.40
2023-03-18T14:57:11.206Z,32.30
2023-03-18T14:59:45.799Z,32.30
2023-03-18T15:02:30.179Z,32.40
2023-03-18T15:05:15.694Z,32.40
2023-03-18T15:07:52.695Z,32.40
2023-03-18T15:10:32.463Z,32.40
2023-03-18T15:13:13.435Z,32.40
2023-03-18T15:15:50.831Z,32.60
2023-03-18T15:18:34.047Z,32.30
2023-03-18T15:21:18.189Z,32.30
2023-03-18T15:23:54.668Z,32.30
2023-03-18T15:26:31.982Z,32.30
2023-03-18T15:29:30.786Z,32.30
2023-03-18T15:32:25.233Z,32.40
2023-03-18T15:35:02.564Z,32.40
2023-03-18T15:37:51.287Z,32.40
2023-03-18T15:40:38.283Z,32.40
2023-03-18T15:43:22.322Z,32.50
2023-03-18T15:46:02.865Z,32.40
2023-03-18T15:48:40.802Z,32.50
2023-03-18T15:51:29.093Z,32.40
2023-03-18T15:54:11.974Z,32.40
2023-03-18T15:56:55.193Z,32.50
2023-03-18T15:59:31.376Z,32.50
2023-03-18T16:02:08.321Z,32.50
2023-03-18T16:04:46.021Z,32.40
2023-03-18T16:07:24.021Z,32.40
2023-03-18T16:09:59.476Z,32.40
2023-03-18T16:12:34.003Z,32.40
2023-03-18T16:15:09.400Z,32.40
2023-03-18T16:17:43.880Z,32.50
2023-03-18T16:20:22.806Z,32.40
2023-03-18T16:22:53.239Z,32.50
2023-03-18T16:25:34.811Z,32.60
2023-03-18T16:28:10.642Z,32.60
2023-03-18T16:30:45.270Z,32.60
2023-03-18T16:33:19.858Z,32.60
2023-03-18T16:36:04.203Z,32.60
2023-03-18T16:38:42.142Z,32.60
2023-03-18T16:41:16.982Z,32.60
2023-03-18T16:43:53.273Z,32.60
2023-03-18T16:46:25.988Z,32.70
2023-03-18T16:49:02.569Z,32.70
2023-03-18T16:51:35.577Z,32.70
2023-03-18T16:54:12.047Z,32.80
2023-03-18T16:56:47.329Z,32.70
2023-03-18T16:59:19.996Z,32.70
2023-03-18T17:01:59.808Z,32.80
2023-03-18T17:04:35.425Z,32.80
2023-03-18T17:07:08.137Z,32.90
2023-03-18T17:09:43.692Z,32.90
2023-03-18T17:12:20.194Z,32.90
2023-03-18T17:14:57.148Z,32.90
2023-03-18T17:17:37.079Z,32.90
2023-03-18T17:20:22.410Z,32.90
2023-03-18T17:22:54.931Z,32.90
2023-03-18T17:25:32.973Z,32.90
2023-03-18T17:28:15.243Z,33.10
2023-03-18T17:30:49.421Z,33.00
2023-03-18T17:33:27.988Z,33.00
2023-03-18T17:36:02.920Z,33.10
2023-03-18T17:38:39.384Z,33.10
2023-03-18T17:41:19.761Z,33.10
2023-03-18T17:43:54.133Z,33.10
2023-03-18T17:46:29.451Z,33.20
2023-03-18T17:49:09.249Z,33.20
2023-03-18T17:51:48.797Z,33.20
2023-03-18T17:54:27.099Z,33.10
2023-03-18T17:57:05.210Z,33.10
2023-03-18T17:59:50.077Z,33.20
2023-03-18T18:02:26.838Z,33.20
2023-03-18T18:05:08.322Z,33.20
2023-03-18T18:07:41.204Z,33.20
2023-03-18T18:10:16.442Z,33.20
2023-03-18T18:12:52.809Z,33.20
2023-03-18T18:15:34.054Z,33.10
2023-03-18T18:18:16.091Z,33.20
2023-03-18T18:20:51.350Z,33.80
2023-03-18T18:23:30.658Z,33.20
2023-03-18T18:26:06.925Z,33.20
2023-03-18T18:28:42.678Z,33.20
2023-03-18T18:31:24.382Z,33.30
2023-03-18T18:34:01.060Z,33.30
2023-03-18T18:36:33.264Z,33.30
2023-03-18T18:39:06.937Z,33.30
2023-03-18T18:41:45.115Z,33.40
2023-03-18T18:44:25.800Z,33.40
2023-03-18T18:46:59.435Z,33.40
2023-03-18T18:49:35.352Z,33.40
2023-03-18T18:52:19.461Z,33.40
2023-03-18T18:54:57.694Z,33.40
2023-03-18T18:57:32.592Z,33.50
2023-03-18T19:00:12.321Z,33.60
2023-03-18T19:02:52.626Z,33.50
2023-03-18T19:05:27.455Z,33.60
2023-03-18T19:08:07.779Z,33.60
2023-03-18T19:10:44.315Z,33.60
2023-03-18T19:13:20.552Z,33.60
2023-03-18T19:15:54.194Z,33.60
2023-03-18T19:18:31.877Z,33.60
2023-03-18T19:21:07.351Z,33.50
2023-03-18T19:23:44.983Z,33.60
2023-03-18T19:26:26.372Z,33.60
2023-03-18T19:29:05.296Z,33.50
2023-03-18T19:31:42.600Z,33.60
2023-03-18T19:34:23.355Z,33.60
2023-03-18T19:36:59.584Z,33.60
2023-03-18T19:39:35.676Z,33.60
2023-03-18T19:42:10.350Z,33.70
2023-03-18T19:44:44.400Z,33.70
2023-03-18T19:47:26.259Z,33.60
2023-03-18T19:50:06.843Z,33.70
2023-03-18T19:52:41.266Z,33.80
2023-03-18T19:55:26.044Z,33.70
2023-03-18T19:58:01.588Z,33.60
2023-03-18T20:00:36.903Z,33.70
2023-03-18T20:03:17.960Z,33.70
2023-03-18T20:05:58.602Z,33.60
2023-03-18T20:08:37.608Z,33.70
2023-03-18T20:11:21.295Z,33.70
2023-03-18T20:13:54.592Z,33.70
2023-03-18T20:16:31.438Z,33.80
2023-03-18T20:19:04.183Z,33.70
2023-03-18T20:21:39.218Z,33.70
2023-03-18T20:24:18.757Z,33.80
2023-03-18T20:26:50.278Z,33.80
2023-03-18T20:29:29.983Z,33.80
2023-03-18T20:32:09.499Z,33.80
2023-03-18T20:34:44.171Z,33.80
2023-03-18T20:37:33.776Z,33.80
2023-03-18T20:40:08.463Z,33.80
2023-03-18T20:42:47.254Z,33.70
2023-03-18T20:45:20.463Z,33.70
2023-03-18T20:47:55.974Z,33.80
2023-03-18T20:50:35.470Z,33.80
2023-03-18T20:53:18.603Z,33.80
2023-03-18T20:55:52.874Z,33.70
2023-03-18T20:58:31.063Z,33.80
2023-03-18T21:01:07.711Z,33.80
2023-03-18T21:03:46.145Z,33.80
2023-03-18T21:06:23.140Z,33.80
2023-03-18T21:09:00.730Z,33.80
2023-03-18T21:11:39.152Z,33.80
2023-03-18T21:14:14.939Z,33.80
2023-03-18T21:16:50.283Z,33.80
2023-03-18T21:19:29.695Z,33.80
2023-03-18T21:22:01.968Z,33.80
2023-03-18T21:24:37.106Z,33.80
2023-03-18T21:27:20.915Z,33.80
2023-03-18T21:29:55.638Z,33.80
2023-03-18T21:32:32.944Z,33.80
2023-03-18T21:35:07.742Z,33.90
2023-03-18T21:37:42.635Z,33.80
2023-03-18T21:40:26.386Z,33.80
2023-03-18T21:43:01.056Z,33.80
2023-03-18T21:45:36.553Z,33.80
2023-03-18T21:48:11.863Z,33.80
2023-03-18T21:50:48.942Z,33.80
2023-03-18T21:53:23.939Z,33.80
2023-03-18T21:56:02.353Z,33.80
2023-03-18T21:58:38.426Z,33.80
2023-03-18T22:01:11.535Z,33.80
2023-03-18T22:03:46.433Z,33.80
2023-03-18T22:06:21.212Z,33.90
2023-03-18T22:08:56.452Z,33.90
2023-03-18T22:11:36.101Z,33.90
2023-03-18T22:14:12.933Z,33.90
2023-03-18T22:16:45.097Z,33.90
2023-03-18T22:19:18.533Z,33.90
2023-03-18T22:21:52.012Z,33.90
2023-03-18T22:24:26.056Z,33.90
2023-03-18T22:26:59.102Z,33.80
2023-03-18T22:29:35.564Z,33.90
2023-03-18T22:32:15.304Z,33.90
2023-03-18T22:34:53.561Z,33.90
2023-03-18T22:37:30.051Z,33.80
2023-03-18T22:40:02.652Z,33.90
2023-03-18T22:42:40.274Z,33.90
2023-03-18T22:45:29.932Z,33.90
2023-03-18T22:48:05.046Z,33.90
2023-03-18T22:50:38.197Z,33.90
2023-03-18T22:53:16.306Z,33.80
2023-03-18T22:55:47.713Z,33.90
2023-03-18T22:58:36.093Z,33.90
2023-03-18T23:01:09.257Z,33.80
2023-03-18T23:03:44.231Z,33.80
2023-03-18T23:06:21.437Z,33.80
2023-03-18T23:08:53.627Z,33.90
2023-03-18T23:11:27.852Z,33.90
2023-03-18T23:14:06.051Z,33.90
2023-03-18T23:16:38.740Z,33.90
2023-03-18T23:19:12.872Z,34.00
2023-03-18T23:21:46.788Z,33.90
2023-03-18T23:24:23.417Z,33.90
2023-03-18T23:26:55.573Z,33.90
2023-03-18T23:29:38.322Z,33.90
2023-03-18T23:32:13.062Z,33.90
2023-03-18T23:34:46.380Z,34.00
2023-03-18T23:37:24.048Z,33.90
2023-03-18T23:40:01.564Z,34.00
2023-03-18T23:42:35.456Z,34.00
2023-03-18T23:45:13.288Z,34.00
2023-03-18T23:47:50.084Z,33.90
2023-03-18T23:50:25.387Z,34.00
2023-03-18T23:53:00.608Z,33.90
2023-03-18T23:55:35.821Z,33.90
2023-03-18T23:58:19.266Z,34.00
